sensor_id;sensor_type;location;lat;lon;timestamp;temperature;humidity
57753;DHT22;43583;53.132;6.574;2022-09-16T00:01:27;10.70;99.90
57753;DHT22;43583;53.132;6.574;2022-09-16T00:03:54;10.70;99.90
57753;DHT22;43583;53.132;6.574;2022-09-16T00:06:22;10.60;99.90
57753;DHT22;43583;53.132;6.574;2022-09-16T00:08:48;10.60;99.90
57753;DHT22;43583;53.132;6.574;2022-09-16T00:11:15;10.60;99.90
57753;DHT22;43583;53.132;6.574;2022-09-16T00:13:41;10.70;99.90
57753;DHT22;43583;53.132;6.574;2022-09-16T00:16:09;10.80;99.90
57753;DHT22;43583;53.132;6.574;2022-09-16T00:18:34;10.80;99.90
57753;DHT22;43583;53.132;6.574;2022-09-16T00:21:00;10.90;99.90
57753;DHT22;43583;53.132;6.574;2022-09-16T00:23:25;10.90;99.90
57753;DHT22;43583;53.132;6.574;2022-09-16T00:25:52;11.00;99.90
57753;DHT22;43583;53.132;6.574;2022-09-16T00:28:19;11.00;99.90
57753;DHT22;43583;53.132;6.574;2022-09-16T00:30:46;11.00;99.90
57753;DHT22;43583;53.132;6.574;2022-09-16T00:33:12;11.10;99.90
57753;DHT22;43583;53.132;6.574;2022-09-16T00:35:37;11.10;99.90
57753;DHT22;43583;53.132;6.574;2022-09-16T00:38:03;11.20;99.90
57753;DHT22;43583;53.132;6.574;2022-09-16T00:40:29;11.20;99.90
57753;DHT22;43583;53.132;6.574;2022-09-16T00:42:54;11.20;99.90
57753;DHT22;43583;53.132;6.574;2022-09-16T00:45:24;11.20;99.90
57753;DHT22;43583;53.132;6.574;2022-09-16T00:47:56;11.20;99.90
57753;DHT22;43583;53.132;6.574;2022-09-16T00:50:40;11.20;99.90
57753;DHT22;43583;53.132;6.574;2022-09-16T00:53:12;11.20;99.90
57753;DHT22;43583;53.132;6.574;2022-09-16T00:55:40;11.20;99.90
57753;DHT22;43583;53.132;6.574;2022-09-16T01:00:39;11.20;99.90
57753;DHT22;43583;53.132;6.574;2022-09-16T01:03:05;11.20;99.90
57753;DHT22;43583;53.132;6.574;2022-09-16T01:05:31;11.30;99.90
57753;DHT22;43583;53.132;6.574;2022-09-16T01:07:56;11.30;99.90
57753;DHT22;43583;53.132;6.574;2022-09-16T01:10:24;11.30;99.90
57753;DHT22;43583;53.132;6.574;2022-09-16T01:12:59;11.30;99.90
57753;DHT22;43583;53.132;6.574;2022-09-16T01:15:40;11.20;99.90
57753;DHT22;43583;53.132;6.574;2022-09-16T01:18:20;11.20;99.90
57753;DHT22;43583;53.132;6.574;2022-09-16T01:20:55;11.20;99.90
57753;DHT22;43583;53.132;6.574;2022-09-16T01:35:15;11.00;99.90
57753;DHT22;43583;53.132;6.574;2022-09-16T01:38:02;10.90;99.90
57753;DHT22;43583;53.132;6.574;2022-09-16T01:40:49;10.80;99.90
57753;DHT22;43583;53.132;6.574;2022-09-16T01:46:14;10.60;99.90
57753;DHT22;43583;53.132;6.574;2022-09-16T01:48:55;10.60;99.90
57753;DHT22;43583;53.132;6.574;2022-09-16T01:51:38;10.50;99.90
57753;DHT22;43583;53.132;6.574;2022-09-16T01:54:14;10.40;99.90
57753;DHT22;43583;53.132;6.574;2022-09-16T01:57:07;10.40;99.90
57753;DHT22;43583;53.132;6.574;2022-09-16T01:59:55;10.50;99.90
57753;DHT22;43583;53.132;6.574;2022-09-16T02:02:53;10.40;99.90
57753;DHT22;43583;53.132;6.574;2022-09-16T02:05:36;10.40;99.90
57753;DHT22;43583;53.132;6.574;2022-09-16T02:08:14;10.40;99.90
57753;DHT22;43583;53.132;6.574;2022-09-16T02:10:49;10.40;99.90
57753;DHT22;43583;53.132;6.574;2022-09-16T02:13:21;10.40;99.90
57753;DHT22;43583;53.132;6.574;2022-09-16T02:15:50;10.40;99.90
57753;DHT22;43583;53.132;6.574;2022-09-16T02:18:21;10.40;99.90
57753;DHT22;43583;53.132;6.574;2022-09-16T02:20:48;10.50;99.90
57753;DHT22;43583;53.132;6.574;2022-09-16T02:23:22;10.50;99.90
57753;DHT22;43583;53.132;6.574;2022-09-16T02:25:50;10.60;99.90
57753;DHT22;43583;53.132;6.574;2022-09-16T02:28:22;10.60;99.90
57753;DHT22;43583;53.132;6.574;2022-09-16T02:30:52;10.60;99.90
57753;DHT22;43583;53.132;6.574;2022-09-16T02:33:19;10.60;99.90
57753;DHT22;43583;53.132;6.574;2022-09-16T02:35:50;10.50;99.90
57753;DHT22;43583;53.132;6.574;2022-09-16T02:38:23;10.50;99.90
57753;DHT22;43583;53.132;6.574;2022-09-16T02:40:58;10.50;99.90
57753;DHT22;43583;53.132;6.574;2022-09-16T02:43:25;10.50;99.90
57753;DHT22;43583;53.132;6.574;2022-09-16T02:51:20;10.70;99.90
57753;DHT22;43583;53.132;6.574;2022-09-16T02:53:55;10.70;99.90
57753;DHT22;43583;53.132;6.574;2022-09-16T02:56:30;10.70;99.90
57753;DHT22;43583;53.132;6.574;2022-09-16T02:58:56;10.80;99.90
57753;DHT22;43583;53.132;6.574;2022-09-16T03:01:22;10.80;99.90
57753;DHT22;43583;53.132;6.574;2022-09-16T03:03:49;10.80;99.90
57753;DHT22;43583;53.132;6.574;2022-09-16T03:06:19;10.80;99.90
57753;DHT22;43583;53.132;6.574;2022-09-16T03:08:46;10.80;99.90
57753;DHT22;43583;53.132;6.574;2022-09-16T03:14:19;10.80;99.90
57753;DHT22;43583;53.132;6.574;2022-09-16T03:20:21;10.80;99.90
57753;DHT22;43583;53.132;6.574;2022-09-16T03:25:44;10.80;99.90
57753;DHT22;43583;53.132;6.574;2022-09-16T03:28:18;10.70;99.90
57753;DHT22;43583;53.132;6.574;2022-09-16T03:31:04;10.60;99.90
57753;DHT22;43583;53.132;6.574;2022-09-16T03:36:18;10.50;99.90
57753;DHT22;43583;53.132;6.574;2022-09-16T03:38:45;10.30;99.90
57753;DHT22;43583;53.132;6.574;2022-09-16T03:41:12;10.20;99.90
57753;DHT22;43583;53.132;6.574;2022-09-16T03:43:39;10.10;99.90
57753;DHT22;43583;53.132;6.574;2022-09-16T03:46:09;10.10;99.90
57753;DHT22;43583;53.132;6.574;2022-09-16T03:48:35;9.90;99.90
57753;DHT22;43583;53.132;6.574;2022-09-16T03:51:01;9.90;99.90
57753;DHT22;43583;53.132;6.574;2022-09-16T03:53:26;9.80;99.90
57753;DHT22;43583;53.132;6.574;2022-09-16T03:55:52;9.90;99.90
57753;DHT22;43583;53.132;6.574;2022-09-16T03:58:17;9.90;99.90
57753;DHT22;43583;53.132;6.574;2022-09-16T04:00:47;9.90;99.90
57753;DHT22;43583;53.132;6.574;2022-09-16T04:03:15;10.00;99.90
57753;DHT22;43583;53.132;6.574;2022-09-16T04:05:40;10.00;99.90
57753;DHT22;43583;53.132;6.574;2022-09-16T04:08:06;9.90;99.90
57753;DHT22;43583;53.132;6.574;2022-09-16T04:10:31;9.90;99.90
57753;DHT22;43583;53.132;6.574;2022-09-16T04:12:59;9.80;99.90
57753;DHT22;43583;53.132;6.574;2022-09-16T04:15:24;9.80;99.90
57753;DHT22;43583;53.132;6.574;2022-09-16T04:17:50;9.70;99.90
57753;DHT22;43583;53.132;6.574;2022-09-16T04:20:15;9.70;99.90
57753;DHT22;43583;53.132;6.574;2022-09-16T04:22:41;9.60;99.90
57753;DHT22;43583;53.132;6.574;2022-09-16T04:25:07;9.60;99.90
57753;DHT22;43583;53.132;6.574;2022-09-16T04:27:33;9.60;99.90
57753;DHT22;43583;53.132;6.574;2022-09-16T04:29:58;9.50;99.90
57753;DHT22;43583;53.132;6.574;2022-09-16T04:32:24;9.50;99.90
57753;DHT22;43583;53.132;6.574;2022-09-16T04:34:49;9.40;99.90
57753;DHT22;43583;53.132;6.574;2022-09-16T04:37:15;9.30;99.90
57753;DHT22;43583;53.132;6.574;2022-09-16T04:39:40;9.30;99.90
57753;DHT22;43583;53.132;6.574;2022-09-16T04:42:06;9.20;99.90
57753;DHT22;43583;53.132;6.574;2022-09-16T04:44:31;9.20;99.90
57753;DHT22;43583;53.132;6.574;2022-09-16T04:46:57;9.10;99.90
57753;DHT22;43583;53.132;6.574;2022-09-16T04:49:22;9.10;99.90
57753;DHT22;43583;53.132;6.574;2022-09-16T04:51:48;9.00;99.90
57753;DHT22;43583;53.132;6.574;2022-09-16T04:54:15;9.00;99.90
57753;DHT22;43583;53.132;6.574;2022-09-16T04:56:40;9.00;99.90
57753;DHT22;43583;53.132;6.574;2022-09-16T04:59:06;9.10;99.90
57753;DHT22;43583;53.132;6.574;2022-09-16T05:01:35;9.10;99.90
57753;DHT22;43583;53.132;6.574;2022-09-16T05:04:03;9.20;99.90
57753;DHT22;43583;53.132;6.574;2022-09-16T05:06:32;9.30;99.90
57753;DHT22;43583;53.132;6.574;2022-09-16T05:08:58;9.30;99.90
57753;DHT22;43583;53.132;6.574;2022-09-16T05:11:27;9.40;99.90
57753;DHT22;43583;53.132;6.574;2022-09-16T05:13:53;9.50;99.90
57753;DHT22;43583;53.132;6.574;2022-09-16T05:16:21;9.50;99.90
57753;DHT22;43583;53.132;6.574;2022-09-16T05:18:48;9.60;99.90
57753;DHT22;43583;53.132;6.574;2022-09-16T05:21:18;9.50;99.90
57753;DHT22;43583;53.132;6.574;2022-09-16T05:23:44;9.50;99.90
57753;DHT22;43583;53.132;6.574;2022-09-16T05:26:13;9.50;99.90
57753;DHT22;43583;53.132;6.574;2022-09-16T05:28:39;9.50;99.90
57753;DHT22;43583;53.132;6.574;2022-09-16T05:31:18;9.50;99.90
57753;DHT22;43583;53.132;6.574;2022-09-16T05:33:46;9.50;99.90
57753;DHT22;43583;53.132;6.574;2022-09-16T05:36:16;9.50;99.90
57753;DHT22;43583;53.132;6.574;2022-09-16T05:38:43;9.50;99.90
57753;DHT22;43583;53.132;6.574;2022-09-16T05:41:09;9.50;99.90
57753;DHT22;43583;53.132;6.574;2022-09-16T05:43:35;9.60;99.90
57753;DHT22;43583;53.132;6.574;2022-09-16T05:46:02;9.70;99.90
57753;DHT22;43583;53.132;6.574;2022-09-16T05:48:28;9.80;99.90
57753;DHT22;43583;53.132;6.574;2022-09-16T05:50:59;9.90;99.90
57753;DHT22;43583;53.132;6.574;2022-09-16T05:53:28;10.00;99.90
57753;DHT22;43583;53.132;6.574;2022-09-16T05:56:02;10.00;99.90
57753;DHT22;43583;53.132;6.574;2022-09-16T05:58:29;10.00;99.90
57753;DHT22;43583;53.132;6.574;2022-09-16T06:01:03;10.00;99.90
57753;DHT22;43583;53.132;6.574;2022-09-16T06:03:29;10.10;99.90
57753;DHT22;43583;53.132;6.574;2022-09-16T06:06:02;10.20;99.90
57753;DHT22;43583;53.132;6.574;2022-09-16T06:08:29;10.40;99.90
57753;DHT22;43583;53.132;6.574;2022-09-16T06:10:55;11.20;99.90
57753;DHT22;43583;53.132;6.574;2022-09-16T06:13:20;12.10;99.90
57753;DHT22;43583;53.132;6.574;2022-09-16T06:15:50;13.10;99.90
57753;DHT22;43583;53.132;6.574;2022-09-16T06:18:17;13.90;99.90
57753;DHT22;43583;53.132;6.574;2022-09-16T06:20:43;14.70;99.90
57753;DHT22;43583;53.132;6.574;2022-09-16T06:23:09;15.10;99.90
57753;DHT22;43583;53.132;6.574;2022-09-16T06:25:35;15.20;99.90
57753;DHT22;43583;53.132;6.574;2022-09-16T06:28:01;14.90;99.90
57753;DHT22;43583;53.132;6.574;2022-09-16T06:30:26;14.40;99.90
57753;DHT22;43583;53.132;6.574;2022-09-16T06:32:52;14.30;99.90
57753;DHT22;43583;53.132;6.574;2022-09-16T06:35:17;14.40;99.90
57753;DHT22;43583;53.132;6.574;2022-09-16T06:37:43;14.50;99.90
57753;DHT22;43583;53.132;6.574;2022-09-16T06:40:08;15.10;99.90
57753;DHT22;43583;53.132;6.574;2022-09-16T06:42:34;16.00;99.90
57753;DHT22;43583;53.132;6.574;2022-09-16T06:45:00;17.00;99.90
57753;DHT22;43583;53.132;6.574;2022-09-16T06:47:28;17.90;99.90
57753;DHT22;43583;53.132;6.574;2022-09-16T06:49:54;18.70;99.90
57753;DHT22;43583;53.132;6.574;2022-09-16T06:52:19;19.30;99.90
57753;DHT22;43583;53.132;6.574;2022-09-16T06:54:45;19.90;99.90
57753;DHT22;43583;53.132;6.574;2022-09-16T06:57:12;20.60;99.90
57753;DHT22;43583;53.132;6.574;2022-09-16T06:59:37;21.10;99.90
57753;DHT22;43583;53.132;6.574;2022-09-16T07:02:03;21.40;99.90
57753;DHT22;43583;53.132;6.574;2022-09-16T07:04:28;21.60;99.90
57753;DHT22;43583;53.132;6.574;2022-09-16T07:06:54;21.70;99.90
57753;DHT22;43583;53.132;6.574;2022-09-16T07:09:22;22.00;99.90
57753;DHT22;43583;53.132;6.574;2022-09-16T07:11:48;22.50;99.90
57753;DHT22;43583;53.132;6.574;2022-09-16T07:14:13;23.00;99.90
57753;DHT22;43583;53.132;6.574;2022-09-16T07:16:39;23.20;99.90
57753;DHT22;43583;53.132;6.574;2022-09-16T07:19:05;23.10;99.90
57753;DHT22;43583;53.132;6.574;2022-09-16T07:21:30;22.40;99.90
57753;DHT22;43583;53.132;6.574;2022-09-16T07:23:58;21.10;99.90
57753;DHT22;43583;53.132;6.574;2022-09-16T07:26:26;19.90;99.90
57753;DHT22;43583;53.132;6.574;2022-09-16T07:28:53;19.60;99.90
57753;DHT22;43583;53.132;6.574;2022-09-16T07:31:23;20.00;99.90
57753;DHT22;43583;53.132;6.574;2022-09-16T07:33:50;20.90;99.90
57753;DHT22;43583;53.132;6.574;2022-09-16T07:36:22;21.70;99.90
57753;DHT22;43583;53.132;6.574;2022-09-16T07:38:48;22.50;99.90
57753;DHT22;43583;53.132;6.574;2022-09-16T07:41:23;23.00;99.90
57753;DHT22;43583;53.132;6.574;2022-09-16T07:43:48;23.60;99.40
57753;DHT22;43583;53.132;6.574;2022-09-16T07:46:16;23.70;94.70
57753;DHT22;43583;53.132;6.574;2022-09-16T07:48:43;24.20;99.00
57753;DHT22;43583;53.132;6.574;2022-09-16T07:51:11;24.70;98.30
57753;DHT22;43583;53.132;6.574;2022-09-16T07:53:37;24.20;96.90
57753;DHT22;43583;53.132;6.574;2022-09-16T07:56:06;23.50;96.30
57753;DHT22;43583;53.132;6.574;2022-09-16T07:58:32;22.90;94.60
57753;DHT22;43583;53.132;6.574;2022-09-16T08:00:58;21.70;94.50
57753;DHT22;43583;53.132;6.574;2022-09-16T08:03:24;20.10;95.20
57753;DHT22;43583;53.132;6.574;2022-09-16T08:05:50;19.00;97.20
57753;DHT22;43583;53.132;6.574;2022-09-16T08:08:16;18.50;99.00
57753;DHT22;43583;53.132;6.574;2022-09-16T08:10:41;17.90;99.90
57753;DHT22;43583;53.132;6.574;2022-09-16T08:13:08;17.40;99.90
57753;DHT22;43583;53.132;6.574;2022-09-16T08:15:33;17.40;99.90
57753;DHT22;43583;53.132;6.574;2022-09-16T08:17:59;18.60;99.90
57753;DHT22;43583;53.132;6.574;2022-09-16T08:20:25;19.70;99.90
57753;DHT22;43583;53.132;6.574;2022-09-16T08:22:51;20.10;99.90
57753;DHT22;43583;53.132;6.574;2022-09-16T08:25:17;20.90;99.90
57753;DHT22;43583;53.132;6.574;2022-09-16T08:27:42;21.60;98.00
57753;DHT22;43583;53.132;6.574;2022-09-16T08:30:09;22.30;97.80
57753;DHT22;43583;53.132;6.574;2022-09-16T08:32:35;22.60;95.30
57753;DHT22;43583;53.132;6.574;2022-09-16T08:35:00;22.80;94.60
57753;DHT22;43583;53.132;6.574;2022-09-16T08:37:26;23.30;94.10
57753;DHT22;43583;53.132;6.574;2022-09-16T08:39:52;24.10;94.00
57753;DHT22;43583;53.132;6.574;2022-09-16T08:45:14;24.70;88.10
57753;DHT22;43583;53.132;6.574;2022-09-16T08:50:40;25.10;84.90
57753;DHT22;43583;53.132;6.574;2022-09-16T08:53:15;25.10;84.10
57753;DHT22;43583;53.132;6.574;2022-09-16T08:55:46;25.20;79.10
57753;DHT22;43583;53.132;6.574;2022-09-16T08:58:25;24.90;73.90
57753;DHT22;43583;53.132;6.574;2022-09-16T09:01:19;24.80;73.40
57753;DHT22;43583;53.132;6.574;2022-09-16T09:03:43;24.60;77.60
57753;DHT22;43583;53.132;6.574;2022-09-16T09:06:29;24.50;74.70
57753;DHT22;43583;53.132;6.574;2022-09-16T09:17:17;23.20;74.60
57753;DHT22;43583;53.132;6.574;2022-09-16T09:28:55;21.80;79.70
57753;DHT22;43583;53.132;6.574;2022-09-16T09:31:42;22.00;78.70
57753;DHT22;43583;53.132;6.574;2022-09-16T09:34:48;22.10;76.00
57753;DHT22;43583;53.132;6.574;2022-09-16T09:40:31;21.40;74.20
57753;DHT22;43583;53.132;6.574;2022-09-16T09:43:18;19.80;76.20
57753;DHT22;43583;53.132;6.574;2022-09-16T09:46:05;18.70;81.50
57753;DHT22;43583;53.132;6.574;2022-09-16T09:48:37;18.20;87.80
57753;DHT22;43583;53.132;6.574;2022-09-16T09:53:53;18.20;89.60
57753;DHT22;43583;53.132;6.574;2022-09-16T09:56:33;18.40;90.30
57753;DHT22;43583;53.132;6.574;2022-09-16T10:01:28;18.20;86.80
57753;DHT22;43583;53.132;6.574;2022-09-16T10:03:54;17.40;82.40
57753;DHT22;43583;53.132;6.574;2022-09-16T10:06:26;17.60;88.60
57753;DHT22;43583;53.132;6.574;2022-09-16T10:08:55;17.90;89.70
57753;DHT22;43583;53.132;6.574;2022-09-16T10:11:27;17.90;89.50
57753;DHT22;43583;53.132;6.574;2022-09-16T10:13:56;18.10;87.10
57753;DHT22;43583;53.132;6.574;2022-09-16T10:16:28;18.30;89.10
57753;DHT22;43583;53.132;6.574;2022-09-16T10:19:02;18.60;89.80
57753;DHT22;43583;53.132;6.574;2022-09-16T10:21:50;18.80;86.20
57753;DHT22;43583;53.132;6.574;2022-09-16T10:24:36;18.70;88.10
57753;DHT22;43583;53.132;6.574;2022-09-16T10:27:19;18.30;89.20
57753;DHT22;43583;53.132;6.574;2022-09-16T10:29:46;18.40;89.70
57753;DHT22;43583;53.132;6.574;2022-09-16T10:32:17;18.50;90.10
57753;DHT22;43583;53.132;6.574;2022-09-16T10:34:46;18.50;88.40
57753;DHT22;43583;53.132;6.574;2022-09-16T10:37:14;18.30;86.90
57753;DHT22;43583;53.132;6.574;2022-09-16T10:39:44;18.30;87.70
57753;DHT22;43583;53.132;6.574;2022-09-16T10:42:25;18.60;88.90
57753;DHT22;43583;53.132;6.574;2022-09-16T10:44:54;18.40;84.70
57753;DHT22;43583;53.132;6.574;2022-09-16T10:47:29;18.00;87.50
57753;DHT22;43583;53.132;6.574;2022-09-16T10:50:01;18.00;88.60
57753;DHT22;43583;53.132;6.574;2022-09-16T10:52:41;18.00;90.10
57753;DHT22;43583;53.132;6.574;2022-09-16T10:55:22;18.10;90.80
57753;DHT22;43583;53.132;6.574;2022-09-16T10:57:48;18.40;90.10
57753;DHT22;43583;53.132;6.574;2022-09-16T11:00:22;18.70;90.10
57753;DHT22;43583;53.132;6.574;2022-09-16T11:05:51;17.90;91.30
57753;DHT22;43583;53.132;6.574;2022-09-16T11:08:33;17.90;93.70
57753;DHT22;43583;53.132;6.574;2022-09-16T11:19:40;18.50;91.40
57753;DHT22;43583;53.132;6.574;2022-09-16T11:22:21;18.70;91.00
57753;DHT22;43583;53.132;6.574;2022-09-16T11:28:06;18.30;92.00
57753;DHT22;43583;53.132;6.574;2022-09-16T11:30:42;17.90;93.50
57753;DHT22;43583;53.132;6.574;2022-09-16T11:33:31;17.40;95.90
57753;DHT22;43583;53.132;6.574;2022-09-16T11:41:48;17.20;93.90
57753;DHT22;43583;53.132;6.574;2022-09-16T11:44:21;17.20;92.70
57753;DHT22;43583;53.132;6.574;2022-09-16T11:57:45;17.60;89.50
57753;DHT22;43583;53.132;6.574;2022-09-16T12:00:15;17.70;90.20
57753;DHT22;43583;53.132;6.574;2022-09-16T12:02:44;17.90;90.60
57753;DHT22;43583;53.132;6.574;2022-09-16T12:10:55;18.50;90.50
57753;DHT22;43583;53.132;6.574;2022-09-16T12:13:29;18.60;89.20
57753;DHT22;43583;53.132;6.574;2022-09-16T12:16:02;18.50;85.70
57753;DHT22;43583;53.132;6.574;2022-09-16T12:18:35;18.50;88.30
57753;DHT22;43583;53.132;6.574;2022-09-16T12:21:17;18.30;86.40
57753;DHT22;43583;53.132;6.574;2022-09-16T12:23:50;18.00;82.90
57753;DHT22;43583;53.132;6.574;2022-09-16T12:26:26;17.90;86.50
57753;DHT22;43583;53.132;6.574;2022-09-16T12:29:05;17.90;87.80
57753;DHT22;43583;53.132;6.574;2022-09-16T12:34:22;17.80;91.10
57753;DHT22;43583;53.132;6.574;2022-09-16T12:36:59;17.80;91.10
57753;DHT22;43583;53.132;6.574;2022-09-16T12:39:27;17.80;90.60
57753;DHT22;43583;53.132;6.574;2022-09-16T12:45:26;18.00;91.10
57753;DHT22;43583;53.132;6.574;2022-09-16T12:53:32;17.80;89.80
57753;DHT22;43583;53.132;6.574;2022-09-16T13:01:52;17.50;91.50
57753;DHT22;43583;53.132;6.574;2022-09-16T13:04:25;17.50;91.80
57753;DHT22;43583;53.132;6.574;2022-09-16T13:06:53;17.30;91.20
57753;DHT22;43583;53.132;6.574;2022-09-16T13:09:35;17.20;90.70
57753;DHT22;43583;53.132;6.574;2022-09-16T13:12:05;17.00;90.90
57753;DHT22;43583;53.132;6.574;2022-09-16T13:14:42;16.90;91.00
57753;DHT22;43583;53.132;6.574;2022-09-16T13:17:09;16.70;91.10
57753;DHT22;43583;53.132;6.574;2022-09-16T13:19:40;16.60;90.70
57753;DHT22;43583;53.132;6.574;2022-09-16T13:22:29;16.40;90.70
57753;DHT22;43583;53.132;6.574;2022-09-16T13:25:08;16.30;90.20
57753;DHT22;43583;53.132;6.574;2022-09-16T13:27:37;16.30;90.60
57753;DHT22;43583;53.132;6.574;2022-09-16T13:37:52;15.40;97.20
57753;DHT22;43583;53.132;6.574;2022-09-16T13:40:25;15.40;98.90
57753;DHT22;43583;53.132;6.574;2022-09-16T13:43:04;15.40;99.90
57753;DHT22;43583;53.132;6.574;2022-09-16T13:45:37;15.30;99.90
57753;DHT22;43583;53.132;6.574;2022-09-16T13:48:15;15.20;99.90
57753;DHT22;43583;53.132;6.574;2022-09-16T13:50:49;15.00;99.90
57753;DHT22;43583;53.132;6.574;2022-09-16T13:53:23;14.90;99.90
57753;DHT22;43583;53.132;6.574;2022-09-16T13:55:51;14.70;99.90
57753;DHT22;43583;53.132;6.574;2022-09-16T13:58:27;14.50;99.90
57753;DHT22;43583;53.132;6.574;2022-09-16T14:01:14;14.50;99.90
57753;DHT22;43583;53.132;6.574;2022-09-16T14:14:48;14.90;99.90
57753;DHT22;43583;53.132;6.574;2022-09-16T14:17:18;15.20;99.90
57753;DHT22;43583;53.132;6.574;2022-09-16T14:19:45;15.40;99.90
57753;DHT22;43583;53.132;6.574;2022-09-16T14:22:15;15.60;99.90
57753;DHT22;43583;53.132;6.574;2022-09-16T14:24:42;15.70;99.90
57753;DHT22;43583;53.132;6.574;2022-09-16T14:27:21;15.70;99.90
57753;DHT22;43583;53.132;6.574;2022-09-16T14:29:58;15.70;99.90
57753;DHT22;43583;53.132;6.574;2022-09-16T14:32:30;15.60;99.90
57753;DHT22;43583;53.132;6.574;2022-09-16T14:34:59;15.60;99.90
57753;DHT22;43583;53.132;6.574;2022-09-16T14:37:29;15.50;99.90
57753;DHT22;43583;53.132;6.574;2022-09-16T14:40:02;15.40;99.90
57753;DHT22;43583;53.132;6.574;2022-09-16T14:42:28;15.40;99.90
57753;DHT22;43583;53.132;6.574;2022-09-16T14:44:55;15.20;99.90
57753;DHT22;43583;53.132;6.574;2022-09-16T14:47:34;15.10;99.90
57753;DHT22;43583;53.132;6.574;2022-09-16T14:50:10;14.80;99.90
57753;DHT22;43583;53.132;6.574;2022-09-16T14:52:37;14.70;99.90
57753;DHT22;43583;53.132;6.574;2022-09-16T14:55:27;14.70;99.90
57753;DHT22;43583;53.132;6.574;2022-09-16T14:57:54;14.60;99.90
57753;DHT22;43583;53.132;6.574;2022-09-16T15:00:20;14.50;99.90
57753;DHT22;43583;53.132;6.574;2022-09-16T15:03:01;14.30;99.90
57753;DHT22;43583;53.132;6.574;2022-09-16T15:05:37;14.30;99.90
57753;DHT22;43583;53.132;6.574;2022-09-16T15:10:35;14.10;99.90
57753;DHT22;43583;53.132;6.574;2022-09-16T15:13:04;13.90;99.90
57753;DHT22;43583;53.132;6.574;2022-09-16T15:15:34;13.80;99.90
57753;DHT22;43583;53.132;6.574;2022-09-16T15:20:28;13.80;99.90
57753;DHT22;43583;53.132;6.574;2022-09-16T15:22:55;13.80;99.90
57753;DHT22;43583;53.132;6.574;2022-09-16T15:25:25;13.80;99.90
57753;DHT22;43583;53.132;6.574;2022-09-16T15:28:03;13.90;99.90
57753;DHT22;43583;53.132;6.574;2022-09-16T15:30:29;13.90;99.90
57753;DHT22;43583;53.132;6.574;2022-09-16T15:32:54;14.00;99.90
57753;DHT22;43583;53.132;6.574;2022-09-16T15:35:22;14.00;99.90
57753;DHT22;43583;53.132;6.574;2022-09-16T15:37:49;14.00;99.90
57753;DHT22;43583;53.132;6.574;2022-09-16T15:43:13;14.20;99.90
57753;DHT22;43583;53.132;6.574;2022-09-16T15:45:41;14.30;99.90
57753;DHT22;43583;53.132;6.574;2022-09-16T15:48:19;14.50;99.90
57753;DHT22;43583;53.132;6.574;2022-09-16T15:50:58;14.60;99.90
57753;DHT22;43583;53.132;6.574;2022-09-16T15:56:00;14.50;99.90
57753;DHT22;43583;53.132;6.574;2022-09-16T16:01:08;14.10;99.90
57753;DHT22;43583;53.132;6.574;2022-09-16T16:03:55;14.00;99.90
57753;DHT22;43583;53.132;6.574;2022-09-16T16:12:07;13.40;99.90
57753;DHT22;43583;53.132;6.574;2022-09-16T16:14:33;13.20;99.90
57753;DHT22;43583;53.132;6.574;2022-09-16T16:17:01;13.10;99.90
57753;DHT22;43583;53.132;6.574;2022-09-16T16:19:28;13.00;99.90
57753;DHT22;43583;53.132;6.574;2022-09-16T16:21:54;13.00;99.90
57753;DHT22;43583;53.132;6.574;2022-09-16T16:24:22;12.90;99.90
57753;DHT22;43583;53.132;6.574;2022-09-16T16:26:48;12.90;99.90
57753;DHT22;43583;53.132;6.574;2022-09-16T16:29:14;12.90;99.90
57753;DHT22;43583;53.132;6.574;2022-09-16T16:31:39;12.90;99.90
57753;DHT22;43583;53.132;6.574;2022-09-16T16:34:05;12.80;99.90
57753;DHT22;43583;53.132;6.574;2022-09-16T16:37:07;12.80;99.90
57753;DHT22;43583;53.132;6.574;2022-09-16T16:40:25;12.90;99.90
57753;DHT22;43583;53.132;6.574;2022-09-16T16:42:50;12.80;99.90
57753;DHT22;43583;53.132;6.574;2022-09-16T16:45:16;12.80;99.90
57753;DHT22;43583;53.132;6.574;2022-09-16T16:47:42;12.80;99.90
57753;DHT22;43583;53.132;6.574;2022-09-16T16:50:09;12.80;99.90
57753;DHT22;43583;53.132;6.574;2022-09-16T16:52:35;12.80;99.90
57753;DHT22;43583;53.132;6.574;2022-09-16T16:55:01;12.80;99.90
57753;DHT22;43583;53.132;6.574;2022-09-16T16:57:26;12.70;99.90
57753;DHT22;43583;53.132;6.574;2022-09-16T16:59:52;12.70;99.90
57753;DHT22;43583;53.132;6.574;2022-09-16T17:02:18;12.70;99.90
57753;DHT22;43583;53.132;6.574;2022-09-16T17:04:43;12.60;99.90
57753;DHT22;43583;53.132;6.574;2022-09-16T17:07:09;12.60;99.90
57753;DHT22;43583;53.132;6.574;2022-09-16T17:09:35;12.60;99.90
57753;DHT22;43583;53.132;6.574;2022-09-16T17:12:00;12.50;99.90
57753;DHT22;43583;53.132;6.574;2022-09-16T17:14:29;12.40;99.90
57753;DHT22;43583;53.132;6.574;2022-09-16T17:16:57;12.40;99.90
57753;DHT22;43583;53.132;6.574;2022-09-16T17:19:24;12.40;99.90
57753;DHT22;43583;53.132;6.574;2022-09-16T17:21:50;12.40;99.90
57753;DHT22;43583;53.132;6.574;2022-09-16T17:24:18;12.30;99.90
57753;DHT22;43583;53.132;6.574;2022-09-16T17:26:45;12.10;99.90
57753;DHT22;43583;53.132;6.574;2022-09-16T17:29:11;12.10;99.90
57753;DHT22;43583;53.132;6.574;2022-09-16T17:31:38;12.00;99.90
57753;DHT22;43583;53.132;6.574;2022-09-16T17:34:06;12.10;99.90
57753;DHT22;43583;53.132;6.574;2022-09-16T17:36:33;12.10;99.90
57753;DHT22;43583;53.132;6.574;2022-09-16T17:39:02;12.10;99.90
57753;DHT22;43583;53.132;6.574;2022-09-16T17:41:29;12.20;99.90
57753;DHT22;43583;53.132;6.574;2022-09-16T17:43:56;12.20;99.90
57753;DHT22;43583;53.132;6.574;2022-09-16T17:46:23;12.30;99.90
57753;DHT22;43583;53.132;6.574;2022-09-16T17:48:52;12.30;99.90
57753;DHT22;43583;53.132;6.574;2022-09-16T17:51:19;12.40;99.90
57753;DHT22;43583;53.132;6.574;2022-09-16T17:53:44;12.30;99.90
57753;DHT22;43583;53.132;6.574;2022-09-16T17:56:15;12.30;99.90
57753;DHT22;43583;53.132;6.574;2022-09-16T17:58:45;12.30;99.90
57753;DHT22;43583;53.132;6.574;2022-09-16T18:01:19;12.30;99.90
57753;DHT22;43583;53.132;6.574;2022-09-16T18:03:46;12.20;99.90
57753;DHT22;43583;53.132;6.574;2022-09-16T18:06:32;12.20;99.90
57753;DHT22;43583;53.132;6.574;2022-09-16T18:09:01;12.30;99.90
57753;DHT22;43583;53.132;6.574;2022-09-16T18:11:27;12.30;99.90
57753;DHT22;43583;53.132;6.574;2022-09-16T18:13:58;12.30;99.90
57753;DHT22;43583;53.132;6.574;2022-09-16T18:16:25;12.30;99.90
57753;DHT22;43583;53.132;6.574;2022-09-16T18:18:53;12.30;99.90
57753;DHT22;43583;53.132;6.574;2022-09-16T18:21:20;12.30;99.90
57753;DHT22;43583;53.132;6.574;2022-09-16T18:23:47;12.30;99.90
57753;DHT22;43583;53.132;6.574;2022-09-16T18:26:15;12.30;99.90
57753;DHT22;43583;53.132;6.574;2022-09-16T18:28:45;12.30;99.90
57753;DHT22;43583;53.132;6.574;2022-09-16T18:31:17;12.30;99.90